KSOP

Moore County Airport

Pinehurst/Southern Pines, North Carolina, USA
METAR KSOP 230356Z AUTO 00000KT 10SM CLR 06/06 A3026 RMK AO2 SLP267 T00610056 401781011
Observed Flight Rules
Oct-23 @ 03:56 UTC (an hour ago) Visual Flight Rules
Visibility Clouds
10 miles
  • Clear skies
Temperatures Readings
Current 6°C / 43°F
Dewpoint 6°C / 43°F
Humidity 100%
Altimeter 30.26" Hg
Pressure 1026.7 hPa
Elevation 141
METAR KSOP 230356Z AUTO 00000KT 10SM CLR 06/06 A3026 RMK AO2 SLP267 T00610056 401781011
Observed Flight Rules
Oct-23 @ 03:56 UTC
(an hour ago)
VFR
Clouds
  • Clear skies
Temperature Dewpoint
6°C / 43°F 6°C / 43°F
Humidity Altimeter Pressure
100% 30.26" Hg 1026.7 hPa